Terminal Aerodrome Forecast
Issued by NWS

Home | Current Version | Previous Version | Text Only | Print | Product List | Glossary On
Versions: 1 2 3 4 5 6 7 8 9 10 11 12 13
000
FTUS45 KRIW 230344 AAA
TAFLND
TAF AMD
KLND 230344Z 2304/2324 VRB05KT P6SM -SN OVC080 WS020/24040KT
     FM231200 VRB04KT P6SM VCSH SCT050 BKN080
     FM232200 VRB04KT P6SM VCSH SCT025 BKN040=

USA.gov is the U.S. government's official web portal to all federal, state and local government web resources and services.